Time;durP1;ratioP1;P1;durP2;ratioP2;P2;SDS_P1;SDS_P2;PMS_P1;PMS_P2;Temp;Humidity;BMP_temperature;BMP_pressure;BME280_temperature;BME280_humidity;BME280_pressure;Samples;Min_cycle;Max_cycle;Signal;HPM_P1;HPM_P2
2021/11/11 00:01:54;;;;;;;;;77.75;49.00;;;;;13.21;100.00;102009.28;5122444;27;45423;-82
2021/11/11 00:04:20;;;;;;;;;72.25;50.50;;;;;13.14;100.00;102000.00;5122143;27;46499;-82
2021/11/11 00:06:47;;;;;;;;;70.50;51.00;;;;;13.14;100.00;101994.69;5122990;27;45844;-82
2021/11/11 00:09:14;;;;;;;;;74.75;55.25;;;;;13.12;100.00;101990.28;5123612;27;45408;-82
2021/11/11 00:11:41;;;;;;;;;70.25;50.25;;;;;13.17;100.00;101997.16;5128714;27;45362;-82
2021/11/11 00:14:07;;;;;;;;;69.25;49.50;;;;;13.15;100.00;101999.91;5114565;27;45498;-82
2021/11/11 00:16:32;;;;;;;;;69.00;49.25;;;;;13.18;100.00;102005.03;5119624;27;45419;-82
2021/11/11 00:18:57;;;;;;;;;67.50;50.00;;;;;13.16;100.00;102003.41;5123807;27;45317;-81
2021/11/11 00:21:23;;;;;;;;;68.25;51.75;;;;;13.21;100.00;102010.16;5117675;27;45442;-82
2021/11/11 00:23:48;;;;;;;;;74.00;54.75;;;;;13.13;100.00;102004.41;5122540;27;46512;-81
2021/11/11 00:26:14;;;;;;;;;73.00;55.50;;;;;13.08;100.00;102004.69;5123263;27;45339;-80
2021/11/11 00:28:39;;;;;;;;;69.25;53.00;;;;;13.07;100.00;102002.97;5120116;27;47071;-81
2021/11/11 00:31:05;;;;;;;;;78.00;53.00;;;;;13.08;100.00;102002.03;5102924;27;45622;-81
2021/11/11 00:33:30;;;;;;;;;69.00;51.75;;;;;13.00;100.00;101984.88;5122858;27;46227;-81
2021/11/11 00:35:56;;;;;;;;;73.75;51.75;;;;;13.01;100.00;101973.31;5121655;27;45475;-81
2021/11/11 00:38:21;;;;;;;;;70.00;52.00;;;;;12.99;100.00;101972.53;5121685;27;45509;-81
2021/11/11 00:40:47;;;;;;;;;69.00;51.75;;;;;12.97;100.00;101969.13;5121902;27;45313;-81
2021/11/11 00:43:12;;;;;;;;;63.25;48.75;;;;;13.02;100.00;101973.19;5120414;27;45383;-80
2021/11/11 00:45:38;;;;;;;;;73.75;53.75;;;;;13.02;100.00;101972.34;5121901;27;45225;-79
2021/11/11 00:48:05;;;;;;;;;76.00;55.25;;;;;12.99;100.00;101969.91;5120852;27;45230;-80
2021/11/11 00:50:32;;;;;;;;;72.00;49.75;;;;;13.03;100.00;101963.44;5121498;27;45285;-80
2021/11/11 00:52:58;;;;;;;;;63.25;48.25;;;;;13.04;100.00;101965.16;5121871;27;46047;-80
2021/11/11 00:55:24;;;;;;;;;66.75;53.00;;;;;12.95;100.00;101963.91;5122776;27;45792;-80
2021/11/11 00:57:49;;;;;;;;;69.75;50.50;;;;;12.95;100.00;101976.31;5099664;27;45495;-80
2021/11/11 01:00:16;;;;;;;;;71.25;52.25;;;;;13.04;100.00;101963.38;5117390;27;45352;-80
2021/11/11 01:02:44;;;;;;;;;67.25;52.00;;;;;13.04;100.00;101965.16;5102277;27;47627;-80
2021/11/11 01:05:10;;;;;;;;;74.75;51.00;;;;;13.04;100.00;101960.72;5121724;27;45357;-80
2021/11/11 01:07:36;;;;;;;;;63.00;46.50;;;;;13.00;100.00;101964.50;5101746;27;45495;-80
2021/11/11 01:10:04;;;;;;;;;69.50;52.25;;;;;13.06;100.00;101971.25;5121155;27;45412;-80
2021/11/11 01:12:30;;;;;;;;;70.00;49.25;;;;;13.01;100.00;101966.22;5121803;27;45986;-79
2021/11/11 01:14:55;;;;;;;;;74.25;54.75;;;;;13.24;100.00;101969.34;5120899;27;45416;-80
2021/11/11 01:17:21;;;;;;;;;61.50;51.50;;;;;12.98;100.00;101960.22;5120875;27;45335;-81
2021/11/11 01:19:46;;;;;;;;;64.00;49.25;;;;;12.97;100.00;101954.06;5102986;27;45636;-80
2021/11/11 01:22:12;;;;;;;;;71.50;50.50;;;;;13.05;100.00;101951.81;5103180;27;48085;-79
2021/11/11 01:24:37;;;;;;;;;72.00;50.00;;;;;13.04;100.00;101960.72;5102458;27;45345;-80
2021/11/11 01:27:03;;;;;;;;;77.00;53.50;;;;;13.03;100.00;101945.75;5118395;27;45405;-80
2021/11/11 01:29:29;;;;;;;;;70.00;52.25;;;;;13.01;100.00;101957.41;5121277;27;45422;-80
2021/11/11 01:31:54;;;;;;;;;66.75;47.75;;;;;12.96;100.00;101959.47;5120914;27;46226;-80
2021/11/11 01:34:20;;;;;;;;;70.50;49.25;;;;;12.97;100.00;101963.81;5121657;27;45363;-81
2021/11/11 01:36:45;;;;;;;;;68.50;52.25;;;;;12.74;100.00;101955.41;5122100;27;45395;-80
2021/11/11 01:39:11;;;;;;;;;70.50;52.75;;;;;12.71;100.00;101952.94;5123010;27;45366;-80
2021/11/11 01:41:36;;;;;;;;;67.75;49.75;;;;;12.94;100.00;101945.44;5121803;27;45400;-80
2021/11/11 01:44:02;;;;;;;;;72.00;51.00;;;;;12.93;100.00;101943.75;5121363;27;45274;-80
2021/11/11 01:46:28;;;;;;;;;69.00;50.25;;;;;12.89;100.00;101940.41;5121429;27;45384;-80
2021/11/11 01:48:53;;;;;;;;;63.00;45.50;;;;;12.85;100.00;101932.72;5121189;27;45538;-80
2021/11/11 01:51:21;;;;;;;;;72.50;46.00;;;;;12.89;100.00;101927.16;5100442;27;46971;-79
2021/11/11 01:53:46;;;;;;;;;62.25;48.75;;;;;12.93;100.00;101927.84;5117016;27;45332;-79
2021/11/11 01:56:12;;;;;;;;;77.25;50.25;;;;;12.85;100.00;101930.06;5121081;27;45289;-80
2021/11/11 01:58:38;;;;;;;;;71.75;50.25;;;;;12.77;100.00;101925.19;5121109;27;45561;-80
2021/11/11 02:01:04;;;;;;;;;64.50;47.75;;;;;12.84;100.00;101931.84;5121207;27;45578;-80
2021/11/11 02:03:30;;;;;;;;;77.50;55.50;;;;;12.83;100.00;101929.31;5121334;27;45483;-80
2021/11/11 02:05:55;;;;;;;;;75.50;49.25;;;;;12.85;100.00;101938.00;5121615;27;45513;-80
2021/11/11 02:08:22;;;;;;;;;64.00;42.25;;;;;12.72;100.00;101936.09;5122403;27;45430;-80
2021/11/11 02:10:47;;;;;;;;;69.50;46.25;;;;;12.74;100.00;101926.25;5121953;27;45959;-80
2021/11/11 02:13:13;;;;;;;;;68.00;49.75;;;;;12.64;100.00;101924.22;5121240;27;45345;-80
2021/11/11 02:15:39;;;;;;;;;71.25;51.00;;;;;12.77;100.00;101914.59;5102630;27;45400;-80
2021/11/11 02:18:08;;;;;;;;;71.00;52.50;;;;;12.79;100.00;101918.03;5120124;27;45424;-80
2021/11/11 02:20:38;;;;;;;;;63.25;49.25;;;;;12.74;100.00;101915.66;5126185;27;45482;-79
2021/11/11 02:23:09;;;;;;;;;73.75;49.75;;;;;12.67;100.00;101913.41;5134814;27;45367;-80
2021/11/11 02:25:34;;;;;;;;;58.25;43.00;;;;;12.59;100.00;101911.22;5136236;27;44784;-80
2021/11/11 02:28:03;;;;;;;;;63.00;48.75;;;;;12.69;100.00;101917.69;5124551;27;45740;-79
2021/11/11 02:30:31;;;;;;;;;70.75;50.00;;;;;12.74;100.00;101926.25;5141186;27;46370;-79
2021/11/11 02:32:57;;;;;;;;;67.25;46.75;;;;;12.74;100.00;101926.25;5124841;27;45325;-79
2021/11/11 02:35:22;;;;;;;;;63.75;46.25;;;;;12.70;100.00;101932.66;5124833;27;45243;-80
2021/11/11 02:37:49;;;;;;;;;62.25;45.50;;;;;12.69;100.00;101927.44;5124531;27;46472;-80
2021/11/11 02:40:14;;;;;;;;;57.50;45.50;;;;;12.65;100.00;101931.22;5124310;27;45208;-80
2021/11/11 02:42:42;;;;;;;;;64.50;47.75;;;;;12.71;100.00;101926.41;5124195;27;45503;-80
2021/11/11 02:45:11;;;;;;;;;60.00;46.00;;;;;12.59;100.00;101931.56;5118578;27;45305;-80
2021/11/11 02:47:36;;;;;;;;;64.75;49.25;;;;;12.50;100.00;101932.09;5126364;27;45223;-80
2021/11/11 02:50:03;;;;;;;;;61.25;46.25;;;;;12.54;100.00;101939.78;5107180;27;47780;-80
2021/11/11 02:52:28;;;;;;;;;65.75;44.00;;;;;12.43;100.00;101928.94;5105601;27;45366;-80
2021/11/11 02:54:54;;;;;;;;;62.75;45.00;;;;;12.58;100.00;101925.41;5105167;27;45496;-80
2021/11/11 02:57:25;;;;;;;;;67.50;49.50;;;;;12.52;100.00;101928.41;5101714;27;45437;-80
2021/11/11 02:59:53;;;;;;;;;56.75;45.00;;;;;12.45;100.00;101920.91;5117729;27;46389;-79
2021/11/11 03:02:26;;;;;;;;;58.00;44.25;;;;;12.48;100.00;101929.50;5123381;27;45801;-80
2021/11/11 03:04:52;;;;;;;;;61.75;46.75;;;;;12.45;100.00;101918.25;5123595;27;45491;-80
2021/11/11 03:07:18;;;;;;;;;61.00;46.75;;;;;12.46;100.00;101925.25;5123616;27;45355;-80
2021/11/11 03:09:44;;;;;;;;;65.25;49.00;;;;;12.48;100.00;101918.91;5123444;27;46112;-80
2021/11/11 03:12:10;;;;;;;;;61.50;46.00;;;;;12.40;100.00;101928.22;5123756;27;45273;-80
2021/11/11 03:14:36;;;;;;;;;66.75;46.00;;;;;12.40;100.00;101930.88;5111895;27;45443;-80
2021/11/11 03:17:04;;;;;;;;;59.75;46.50;;;;;12.43;100.00;101936.03;5120245;27;45529;-80
2021/11/11 03:19:30;;;;;;;;;62.50;48.00;;;;;12.46;100.00;101930.56;5111599;27;45528;-80
2021/11/11 03:21:56;;;;;;;;;67.25;45.75;;;;;12.48;100.00;101926.88;5127027;27;45836;-79
2021/11/11 03:24:21;;;;;;;;;67.25;48.50;;;;;12.29;100.00;101920.91;5107259;27;45426;-79
2021/11/11 03:26:46;;;;;;;;;61.00;48.00;;;;;12.27;100.00;101934.25;5125857;27;45416;-80
2021/11/11 03:29:12;;;;;;;;;63.75;46.25;;;;;12.26;100.00;101929.03;5125764;27;46017;-80
2021/11/11 03:31:37;;;;;;;;;64.50;46.50;;;;;12.15;100.00;101926.09;5120906;27;45301;-80
2021/11/11 03:34:03;;;;;;;;;71.75;50.75;;;;;12.12;100.00;101927.13;5104460;27;45345;-80
2021/11/11 03:36:28;;;;;;;;;62.25;45.75;;;;;12.09;100.00;101926.47;5123020;27;45315;-80
2021/11/11 03:38:54;;;;;;;;;70.00;47.00;;;;;12.04;100.00;101933.78;5104525;27;48641;-80
2021/11/11 03:41:20;;;;;;;;;67.25;44.00;;;;;11.92;100.00;101930.88;5123237;27;45460;-80
2021/11/11 03:43:46;;;;;;;;;62.75;46.75;;;;;11.91;100.00;101934.47;5123009;27;45326;-80
2021/11/11 03:46:12;;;;;;;;;67.75;47.75;;;;;11.92;100.00;101935.31;5104372;27;45764;-80
2021/11/11 03:48:37;;;;;;;;;64.75;46.00;;;;;11.94;100.00;101942.22;5122290;27;46148;-80
2021/11/11 03:51:03;;;;;;;;;69.75;47.25;;;;;12.15;100.00;101945.50;5123104;27;45408;-80
2021/11/11 03:53:28;;;;;;;;;59.50;42.75;;;;;11.98;100.00;101946.44;5123099;27;45290;-80
2021/11/11 03:55:54;;;;;;;;;68.50;48.50;;;;;11.94;100.00;101942.22;5122920;27;45317;-80
2021/11/11 03:58:19;;;;;;;;;69.75;46.50;;;;;11.90;100.00;101943.34;5126688;27;45453;-79
2021/11/11 04:00:45;;;;;;;;;62.75;47.00;;;;;11.92;100.00;101941.47;5125181;27;45425;-80
2021/11/11 04:03:11;;;;;;;;;63.75;43.25;;;;;11.89;100.00;101949.56;5122679;27;45268;-80
2021/11/11 04:05:36;;;;;;;;;68.75;46.50;;;;;11.87;100.00;101937.34;5122474;27;45383;-80
2021/11/11 04:08:02;;;;;;;;;63.50;44.00;;;;;11.79;100.00;101944.84;5122953;27;46355;-80
2021/11/11 04:10:27;;;;;;;;;53.50;39.25;;;;;11.75;100.00;101948.56;5122239;27;45454;-80
2021/11/11 04:12:53;;;;;;;;;63.75;45.75;;;;;11.78;100.00;101940.50;5118268;27;45410;-80
2021/11/11 04:15:18;;;;;;;;;59.75;46.25;;;;;11.82;100.00;101942.91;5100979;27;45329;-80
2021/11/11 04:17:43;;;;;;;;;47.00;40.25;;;;;11.73;100.00;101937.22;5122489;27;45297;-79
2021/11/11 04:20:10;;;;;;;;;66.00;46.00;;;;;11.80;100.00;101952.72;5122012;27;45329;-80
2021/11/11 04:22:37;;;;;;;;;68.50;49.50;;;;;11.87;100.00;101954.09;5122935;27;45256;-80
2021/11/11 04:25:05;;;;;;;;;59.75;45.00;;;;;11.71;100.00;101969.03;5121544;27;45433;-80
2021/11/11 04:27:39;;;;;;;;;71.25;46.75;;;;;11.66;100.00;101968.41;5109751;27;46281;-80
2021/11/11 04:30:19;;;;;;;;;58.00;43.00;;;;;11.75;100.00;101975.91;5122304;27;45805;-80
2021/11/11 04:32:45;;;;;;;;;56.25;44.75;;;;;11.75;100.00;101973.25;5122307;27;45309;-80
2021/11/11 04:35:11;;;;;;;;;55.50;44.00;;;;;11.83;100.00;101981.66;5125183;27;45362;-80
2021/11/11 04:37:47;;;;;;;;;57.75;42.75;;;;;11.81;100.00;101983.53;5105091;27;48452;-80
2021/11/11 04:43:35;;;;;;;;;60.00;43.25;;;;;11.84;100.00;101980.69;5120817;27;45381;-80
2021/11/11 05:04:27;;;;;;;;;56.50;45.25;;;;;12.04;100.00;101973.50;5121654;27;45454;-80
2021/11/11 05:06:54;;;;;;;;;57.25;42.25;;;;;12.01;100.00;101971.03;5121589;27;45361;-80
2021/11/11 05:09:20;;;;;;;;;59.25;44.25;;;;;12.03;100.00;101972.63;5102800;27;47419;-80
2021/11/11 05:11:46;;;;;;;;;63.25;48.50;;;;;12.11;100.00;101977.53;5122089;27;45431;-79
2021/11/11 05:14:11;;;;;;;;;66.75;46.50;;;;;12.04;100.00;101974.34;5119881;27;45395;-80
2021/11/11 05:16:37;;;;;;;;;63.00;46.25;;;;;12.04;100.00;101984.09;5120896;27;45194;-80
2021/11/11 05:19:02;;;;;;;;;67.50;47.00;;;;;12.01;100.00;101984.28;5105795;27;45351;-80
2021/11/11 05:21:28;;;;;;;;;68.25;47.25;;;;;12.07;100.00;101976.84;5103065;27;45234;-80
2021/11/11 05:23:54;;;;;;;;;60.75;47.00;;;;;12.09;100.00;101974.13;5118513;27;45316;-79
2021/11/11 05:26:20;;;;;;;;;63.50;44.50;;;;;12.08;100.00;101972.41;5120494;27;45455;-79
2021/11/11 05:28:46;;;;;;;;;67.50;48.75;;;;;12.05;100.00;101984.00;5121348;27;45435;-80
2021/11/11 05:31:11;;;;;;;;;44.75;29.25;;;;;12.03;100.00;101982.38;5102567;27;45636;-80
2021/11/11 05:33:36;;;;;;;;;63.25;46.75;;;;;12.04;100.00;101984.94;5106887;27;45411;-80
2021/11/11 05:36:02;;;;;;;;;67.25;46.25;;;;;11.98;100.00;101987.94;5103994;27;45344;-80
2021/11/11 05:38:27;;;;;;;;;71.25;49.50;;;;;11.97;100.00;101986.22;5111831;27;45455;-80
2021/11/11 05:40:53;;;;;;;;;64.75;46.50;;;;;11.98;100.00;101983.50;5116393;27;45310;-80
2021/11/11 05:43:18;;;;;;;;;63.75;49.00;;;;;12.07;100.00;101992.72;5110792;27;45525;-80
2021/11/11 05:45:43;;;;;;;;;61.75;47.00;;;;;12.08;100.00;101991.78;5106625;27;45371;-80
2021/11/11 05:48:09;;;;;;;;;65.75;46.75;;;;;12.07;100.00;101997.16;5106530;27;46976;-80
2021/11/11 05:50:36;;;;;;;;;57.75;44.75;;;;;12.12;100.00;102005.69;5122315;27;45360;-79
2021/11/11 05:53:02;;;;;;;;;67.25;52.75;;;;;12.12;100.00;102008.34;5116230;27;45454;-80
2021/11/11 05:55:28;;;;;;;;;70.50;49.25;;;;;12.09;100.00;102019.97;5103607;27;45405;-80
2021/11/11 05:57:53;;;;;;;;;69.25;51.50;;;;;11.98;100.00;102020.56;5112483;27;45627;-80
2021/11/11 06:00:19;;;;;;;;;61.00;47.00;;;;;12.01;100.00;102018.69;5115211;27;45447;-80
2021/11/11 06:02:45;;;;;;;;;67.75;48.75;;;;;11.97;100.00;102024.13;5120284;27;45361;-80
2021/11/11 06:05:12;;;;;;;;;64.75;49.25;;;;;11.89;100.00;102030.75;5120730;27;45416;-80
2021/11/11 06:07:38;;;;;;;;;68.50;46.00;;;;;11.89;100.00;102046.66;5120770;27;45510;-80
2021/11/11 06:10:06;;;;;;;;;65.75;50.50;;;;;11.83;100.00;102046.97;5121111;27;45341;-80
2021/11/11 06:12:31;;;;;;;;;64.75;45.25;;;;;11.73;100.00;102061.59;5121011;27;45416;-80
2021/11/11 06:14:57;;;;;;;;;69.50;52.00;;;;;11.75;100.00;102062.38;5112188;27;45498;-80
2021/11/11 06:17:24;;;;;;;;;58.75;46.25;;;;;11.68;100.00;102063.59;5118753;27;45609;-80
2021/11/11 06:19:50;;;;;;;;;58.75;45.25;;;;;11.72;100.00;102068.66;5121331;27;45166;-79
2021/11/11 06:22:17;;;;;;;;;70.50;47.25;;;;;11.66;100.00;102071.59;5122414;27;45484;-79
2021/11/11 06:24:44;;;;;;;;;55.25;43.00;;;;;11.61;100.00;102087.72;5125113;27;45529;-80
2021/11/11 06:27:10;;;;;;;;;54.00;42.00;;;;;11.57;100.00;102090.59;5112310;27;45454;-79
2021/11/11 06:29:35;;;;;;;;;59.50;45.00;;;;;11.41;100.00;102093.16;5116326;27;45801;-79
2021/11/11 06:32:01;;;;;;;;;59.75;46.25;;;;;11.43;100.00;102091.28;5120775;27;45373;-80
2021/11/11 06:34:26;;;;;;;;;64.50;46.25;;;;;11.36;100.00;102096.97;5120664;27;45581;-80
2021/11/11 06:36:52;;;;;;;;;67.50;47.00;;;;;11.33;100.00;102100.59;5120864;27;46216;-80
2021/11/11 06:39:17;;;;;;;;;62.25;42.50;;;;;11.41;100.00;102110.81;5119994;27;45397;-80
2021/11/11 06:41:43;;;;;;;;;62.00;47.00;;;;;11.34;100.00;102106.75;5101939;27;45304;-79
2021/11/11 06:44:09;;;;;;;;;56.75;45.50;;;;;11.27;100.00;102116.78;5120544;27;45304;-80
2021/11/11 06:46:36;;;;;;;;;61.00;46.75;;;;;11.40;100.00;102123.16;5120477;27;45419;-80
2021/11/11 06:49:02;;;;;;;;;67.25;50.00;;;;;11.43;100.00;102128.31;5101545;27;46010;-79
2021/11/11 06:51:27;;;;;;;;;64.25;48.50;;;;;11.54;100.00;102125.16;5120708;27;45438;-80
2021/11/11 06:53:53;;;;;;;;;55.00;45.50;;;;;11.68;100.00;102138.53;5102232;27;45277;-80
2021/11/11 06:56:19;;;;;;;;;63.00;47.25;;;;;11.63;100.00;102137.94;5120377;27;46005;-80
2021/11/11 06:58:44;;;;;;;;;62.00;45.00;;;;;11.74;100.00;102138.25;5121970;27;45463;-80
2021/11/11 07:01:10;;;;;;;;;60.25;46.25;;;;;11.71;100.00;102142.81;5124094;27;45932;-80
2021/11/11 07:03:35;;;;;;;;;65.00;45.75;;;;;11.72;100.00;102139.25;5120642;27;45490;-80
2021/11/11 07:06:01;;;;;;;;;64.75;48.25;;;;;11.83;100.00;102143.13;5092750;27;47505;-80
2021/11/11 07:08:27;;;;;;;;;63.75;48.00;;;;;11.74;100.00;102135.59;5119520;27;45267;-80
2021/11/11 07:10:54;;;;;;;;;64.00;47.50;;;;;11.88;100.00;102143.72;5111884;27;45577;-80
2021/11/11 07:13:21;;;;;;;;;63.00;47.25;;;;;11.97;100.00;102145.91;5123788;27;45196;-80
2021/11/11 07:15:47;;;;;;;;;65.75;47.00;;;;;12.00;100.00;102142.25;5123438;27;45993;-79
2021/11/11 07:18:13;;;;;;;;;68.50;49.00;;;;;12.19;100.00;102128.91;5123014;27;45868;-80
2021/11/11 07:20:43;;;;;;;;;63.00;48.75;;;;;12.14;100.00;102134.44;5123157;27;45412;-80
2021/11/11 07:23:09;;;;;;;;;69.50;49.75;;;;;12.19;100.00;102139.53;5105259;27;45284;-80
2021/11/11 07:25:34;;;;;;;;;63.50;46.00;;;;;12.11;100.00;102141.72;5123677;27;45520;-80
2021/11/11 07:28:00;;;;;;;;;65.50;45.75;;;;;12.17;100.00;102138.72;5122787;27;45400;-80
2021/11/11 07:30:27;;;;;;;;;62.50;45.00;;;;;12.14;100.00;102133.59;5123387;27;45321;-80
2021/11/11 07:32:52;;;;;;;;;71.50;48.75;;;;;12.08;100.00;102136.56;5103159;27;45509;-80
2021/11/11 07:35:18;;;;;;;;;63.75;46.25;;;;;12.31;100.00;102147.66;5125647;27;45387;-79
2021/11/11 07:37:49;;;;;;;;;65.25;47.75;;;;;12.36;100.00;102136.84;5127498;27;45352;-79
2021/11/11 07:40:17;;;;;;;;;59.00;44.75;;;;;12.35;100.00;102145.72;5123568;27;45151;-80
2021/11/11 07:42:44;;;;;;;;;62.25;43.75;;;;;12.31;100.00;102149.44;5123020;27;45459;-80
2021/11/11 07:45:10;;;;;;;;;67.00;46.25;;;;;12.16;100.00;102139.66;5103744;27;48231;-80
2021/11/11 07:47:36;;;;;;;;;61.50;45.00;;;;;12.13;100.00;102140.66;5122923;27;45391;-80
2021/11/11 07:50:04;;;;;;;;;65.50;44.25;;;;;12.17;100.00;102150.19;5122969;27;45285;-80
2021/11/11 07:52:30;;;;;;;;;64.25;48.50;;;;;12.16;100.00;102139.66;5123367;27;45260;-80
2021/11/11 07:54:58;;;;;;;;;61.50;46.00;;;;;12.26;100.00;102138.25;5122338;27;45282;-80
2021/11/11 07:57:26;;;;;;;;;59.00;46.00;;;;;12.32;100.00;102140.56;5122764;27;45419;-80
2021/11/11 07:59:53;;;;;;;;;62.00;41.75;;;;;12.36;100.00;102131.53;5122765;27;45380;-80
2021/11/11 08:02:20;;;;;;;;;57.75;46.00;;;;;12.43;100.00;102134.72;5122758;27;45239;-80
2021/11/11 08:04:45;;;;;;;;;58.00;43.75;;;;;12.46;100.00;102118.66;5122284;27;46318;-80
2021/11/11 08:07:12;;;;;;;;;61.25;45.50;;;;;12.58;100.00;102121.50;5123382;27;45396;-80
2021/11/11 08:09:37;;;;;;;;;49.00;41.75;;;;;12.70;100.00;102107.59;5125398;27;45415;-80
2021/11/11 08:12:03;;;;;;;;;66.50;45.50;;;;;12.70;100.00;102109.38;5126051;27;45517;-79
2021/11/11 08:14:29;;;;;;;;;59.25;44.25;;;;;13.01;100.00;102104.09;5125118;27;46521;-80
2021/11/11 08:16:55;;;;;;;;;62.25;43.50;;;;;13.03;100.00;102099.53;5122276;27;45465;-80
2021/11/11 08:19:22;;;;;;;;;62.25;48.50;;;;;13.14;100.00;102100.78;5122513;27;45296;-79
2021/11/11 08:21:47;;;;;;;;;64.50;49.50;;;;;13.28;100.00;102104.38;5122295;27;45890;-80
2021/11/11 08:24:13;;;;;;;;;66.75;44.50;;;;;13.29;100.00;102111.38;5102320;27;46411;-80
2021/11/11 08:26:38;;;;;;;;;62.25;45.75;;;;;13.33;100.00;102104.94;5123824;27;45731;-80
2021/11/11 08:29:04;;;;;;;;;66.50;46.75;;;;;13.37;100.00;102103.00;5103236;27;45518;-80
2021/11/11 08:31:29;;;;;;;;;63.75;47.00;;;;;13.30;100.00;102106.91;5121544;27;45493;-80
2021/11/11 08:33:54;;;;;;;;;61.50;46.75;;;;;13.21;100.00;102105.63;5121817;27;46086;-80
2021/11/11 08:36:20;;;;;;;;;64.00;47.25;;;;;13.28;100.00;102103.50;5116892;27;45305;-80
2021/11/11 08:38:46;;;;;;;;;66.50;48.75;;;;;13.32;100.00;102103.25;5119857;27;45455;-80
2021/11/11 08:41:11;;;;;;;;;61.25;43.75;;;;;13.32;100.00;102105.03;5119762;27;45577;-79
2021/11/11 08:43:38;;;;;;;;;65.50;49.00;;;;;13.81;100.00;102097.72;5113553;27;46123;-79
2021/11/11 08:46:03;;;;;;;;;63.50;45.00;;;;;14.58;100.00;102092.13;5118224;27;45948;-79
2021/11/11 08:48:29;;;;;;;;;67.00;48.75;;;;;15.32;100.00;102084.63;5121389;27;45506;-79
2021/11/11 08:50:56;;;;;;;;;67.00;49.00;;;;;16.06;100.00;102084.03;5124246;27;45781;-80
2021/11/11 08:53:21;;;;;;;;;69.25;49.00;;;;;16.18;100.00;102068.16;5121192;27;46162;-80
2021/11/11 08:55:47;;;;;;;;;61.00;47.50;;;;;15.93;100.00;102069.03;5120591;27;45459;-80
2021/11/11 08:58:13;;;;;;;;;70.50;50.50;;;;;15.68;100.00;102073.34;5121482;27;45241;-80
2021/11/11 09:00:44;;;;;;;;;66.25;47.75;;;;;15.61;100.00;102066.75;5120181;27;45577;-80
2021/11/11 09:03:12;;;;;;;;;66.25;49.75;;;;;15.47;100.00;102057.94;5118037;27;45668;-80
2021/11/11 09:05:38;;;;;;;;;64.75;51.00;;;;;15.46;100.00;102061.56;5117624;27;45451;-81
2021/11/11 09:08:05;;;;;;;;;68.50;51.50;;;;;15.32;100.00;102065.13;5120177;27;45454;-80
2021/11/11 09:10:31;;;;;;;;;70.00;49.00;;;;;15.28;100.00;102068.97;5120759;27;45401;-79
2021/11/11 09:12:58;;;;;;;;;64.75;49.00;;;;;15.26;100.00;102063.75;5104937;27;47816;-80
2021/11/11 09:15:29;;;;;;;;;65.00;48.50;;;;;15.27;100.00;102065.44;5118441;27;45906;-79
2021/11/11 09:17:56;;;;;;;;;66.25;52.50;;;;;15.27;100.00;102069.91;5099920;27;45807;-80
2021/11/11 09:20:23;;;;;;;;;73.00;53.00;;;;;15.34;100.00;102072.06;5118778;27;45487;-80
2021/11/11 09:22:50;;;;;;;;;69.00;53.00;;;;;15.34;100.00;102071.22;5120974;27;46550;-80
2021/11/11 09:25:17;;;;;;;;;68.00;51.50;;;;;15.37;100.00;102063.03;5100619;27;45445;-80
2021/11/11 09:27:43;;;;;;;;;74.75;52.25;;;;;15.37;100.00;102067.50;5119539;27;45239;-82
2021/11/11 09:30:18;;;;;;;;;66.25;50.50;;;;;15.37;100.00;102060.38;5090855;27;46053;-82
2021/11/11 09:32:45;;;;;;;;;73.75;53.00;;;;;15.45;100.00;102057.19;5118462;27;46269;-82
2021/11/11 09:35:11;;;;;;;;;70.50;49.50;;;;;15.54;100.00;102056.59;5117696;27;45939;-80
2021/11/11 09:37:37;;;;;;;;;71.25;53.00;;;;;15.60;100.00;102061.50;5120800;27;45440;-80
2021/11/11 09:40:10;;;;;;;;;72.00;53.00;;;;;15.77;100.00;102057.69;5117861;27;45393;-79
2021/11/11 09:42:35;;;;;;;;;71.75;53.25;;;;;15.94;100.00;102068.03;5117712;27;45413;-83
2021/11/11 09:45:05;;;;;;;;;72.00;53.25;;;;;16.02;100.00;102057.72;5120381;27;45351;-79
2021/11/11 09:47:32;;;;;;;;;69.25;52.00;;;;;16.06;99.42;102070.72;5101162;27;45432;-80
2021/11/11 09:49:57;;;;;;;;;72.00;53.00;;;;;16.22;100.00;102062.50;5120302;27;45580;-81
2021/11/11 09:52:25;;;;;;;;;69.25;50.25;;;;;16.50;99.74;102061.41;5119896;27;46159;-81
2021/11/11 10:00:18;;;;;;;;;66.00;49.75;;;;;17.50;98.61;102059.31;5122267;27;45461;-81
2021/11/11 10:02:44;;;;;;;;;64.00;50.00;;;;;17.97;95.82;102062.03;5106114;27;48359;-80
2021/11/11 10:05:10;;;;;;;;;67.75;47.75;;;;;18.38;95.42;102058.78;5122380;27;45314;-80
2021/11/11 10:07:35;;;;;;;;;65.50;49.25;;;;;18.74;92.34;102047.00;5120476;27;45435;-81
2021/11/11 10:10:02;;;;;;;;;63.75;49.75;;;;;18.85;91.82;102045.13;5120018;27;45238;-81
2021/11/11 10:12:27;;;;;;;;;63.75;48.00;;;;;19.12;91.23;102042.00;5102093;27;47460;-81
2021/11/11 10:15:07;;;;;;;;;69.25;50.75;;;;;19.28;88.89;102037.09;5119246;27;45718;-80
2021/11/11 10:17:41;;;;;;;;;68.50;49.75;;;;;19.58;89.17;102041.69;5118630;27;45445;-81
2021/11/11 10:20:07;;;;;;;;;67.00;51.00;;;;;19.80;88.20;102022.81;5121302;27;45412;-81
2021/11/11 10:22:35;;;;;;;;;64.25;47.75;;;;;20.09;85.66;102014.06;5101264;27;47234;-81
2021/11/11 10:25:08;;;;;;;;;71.00;51.25;;;;;20.27;83.79;102007.09;5120355;27;45849;-81
2021/11/11 10:27:39;;;;;;;;;67.75;51.75;;;;;20.44;82.12;102011.84;5119574;27;45483;-81
2021/11/11 10:30:27;;;;;;;;;68.00;51.25;;;;;20.90;83.30;102005.00;5105151;27;45330;-81
2021/11/11 10:32:54;;;;;;;;;68.00;51.25;;;;;20.91;81.68;101994.13;5113434;27;45545;-81
2021/11/11 10:35:19;;;;;;;;;66.75;49.75;;;;;21.29;81.40;102003.22;5116421;27;45707;-81
2021/11/11 10:37:58;;;;;;;;;74.50;55.75;;;;;21.55;78.93;101992.72;5103350;27;45220;-81
2021/11/11 10:40:36;;;;;;;;;72.75;56.25;;;;;21.58;77.98;101995.94;5127376;27;45700;-81
2021/11/11 10:43:10;;;;;;;;;69.75;51.75;;;;;21.33;77.90;102003.75;5117252;27;45511;-81
2021/11/11 10:45:44;;;;;;;;;69.75;54.25;;;;;21.37;76.61;102013.25;5099400;27;46070;-81
2021/11/11 10:48:15;;;;;;;;;71.25;55.00;;;;;21.41;75.52;102015.50;5096203;27;45632;-81
2021/11/11 10:50:52;;;;;;;;;66.00;53.25;;;;;21.75;73.33;102023.09;5117908;27;45579;-81
2021/11/11 10:53:24;;;;;;;;;69.00;52.50;;;;;21.89;72.74;102031.56;5122463;27;48137;-81
2021/11/11 10:55:52;;;;;;;;;69.50;54.50;;;;;21.44;72.73;102031.34;5126842;27;45996;-81
2021/11/11 10:58:24;;;;;;;;;70.00;55.00;;;;;21.64;72.46;102024.97;5119320;27;45505;-81
2021/11/11 11:01:05;;;;;;;;;66.25;52.00;;;;;21.54;69.87;102021.44;5119737;27;45168;-83
2021/11/11 11:03:36;;;;;;;;;72.25;55.75;;;;;21.39;71.85;102005.91;5124252;27;47172;-83
2021/11/11 11:06:07;;;;;;;;;72.25;55.50;;;;;21.50;69.95;102006.56;5108789;27;45320;-84
2021/11/11 11:08:34;;;;;;;;;72.00;56.50;;;;;21.49;67.18;102004.88;5120298;27;45543;-85
2021/11/11 11:11:18;;;;;;;;;73.25;54.75;;;;;21.50;67.01;101998.50;5104354;27;45656;-82
2021/11/11 11:14:23;;;;;;;;;71.75;55.00;;;;;21.34;67.99;101989.34;5124739;27;45381;-82
2021/11/11 11:16:49;;;;;;;;;71.50;53.75;;;;;21.15;69.41;101988.34;5100316;27;45289;-82
2021/11/11 11:19:17;;;;;;;;;66.50;50.25;;;;;21.23;70.18;101972.38;5124734;27;45242;-82
2021/11/11 11:21:44;;;;;;;;;69.75;51.50;;;;;21.33;68.26;101979.59;5124003;27;45437;-86
2021/11/11 11:24:19;;;;;;;;;68.00;52.25;;;;;21.39;68.82;101966.44;5123275;27;46324;-83
2021/11/11 11:26:54;;;;;;;;;65.00;51.75;;;;;21.34;68.20;101960.63;5105161;27;45901;-83
2021/11/11 11:34:35;;;;;;;;;72.25;53.50;;;;;21.62;69.49;101962.41;5116889;27;45416;-81